createdAt,value
2023-04-16T00:00:47.906Z,100.00
2023-04-16T00:03:15.104Z,100.00
2023-04-16T00:05:41.857Z,100.00
2023-04-16T00:08:08.438Z,100.00
2023-04-16T00:10:35.564Z,100.00
2023-04-16T00:13:02.213Z,100.00
2023-04-16T00:15:28.758Z,100.00
2023-04-16T00:17:55.579Z,100.00
2023-04-16T00:20:22.263Z,100.00
2023-04-16T00:22:48.905Z,100.00
2023-04-16T00:25:15.528Z,100.00
2023-04-16T00:27:42.140Z,100.00
2023-04-16T00:30:09.095Z,100.00
2023-04-16T00:32:35.864Z,100.00
2023-04-16T00:35:02.554Z,100.00
2023-04-16T00:37:30.395Z,100.00
2023-04-16T00:39:57.059Z,100.00
2023-04-16T00:42:23.673Z,100.00
2023-04-16T00:44:50.254Z,100.00
2023-04-16T00:47:16.910Z,100.00
2023-04-16T00:49:43.530Z,100.00
2023-04-16T00:52:11.769Z,100.00
2023-04-16T00:54:38.911Z,100.00
2023-04-16T00:57:06.271Z,100.00
2023-04-16T00:59:32.931Z,100.00
2023-04-16T01:01:59.682Z,100.00
2023-04-16T01:04:26.568Z,100.00
2023-04-16T01:06:53.556Z,100.00
2023-04-16T01:09:20.291Z,100.00
2023-04-16T01:11:46.871Z,100.00
2023-04-16T01:14:13.456Z,100.00
2023-04-16T01:16:40.021Z,100.00
2023-04-16T01:19:06.600Z,100.00
2023-04-16T01:21:33.208Z,100.00
2023-04-16T01:24:04.554Z,100.00
2023-04-16T01:26:31.601Z,100.00
2023-04-16T01:28:59.234Z,100.00
2023-04-16T01:31:26.857Z,100.00
2023-04-16T01:34:02.052Z,100.00
2023-04-16T01:36:28.726Z,100.00
2023-04-16T01:38:55.573Z,100.00
2023-04-16T01:41:23.604Z,100.00
2023-04-16T01:43:50.296Z,100.00
2023-04-16T01:46:31.029Z,100.00
2023-04-16T01:48:58.243Z,100.00
2023-04-16T01:51:25.101Z,100.00
2023-04-16T01:53:51.674Z,100.00
2023-04-16T01:56:18.602Z,100.00
2023-04-16T01:58:46.483Z,100.00
2023-04-16T02:01:14.724Z,100.00
2023-04-16T02:03:42.010Z,100.00
2023-04-16T02:06:08.866Z,100.00
2023-04-16T02:08:36.639Z,100.00
2023-04-16T02:11:03.224Z,100.00
2023-04-16T02:13:29.978Z,100.00
2023-04-16T02:15:56.731Z,100.00
2023-04-16T02:18:49.469Z,100.00
2023-04-16T02:21:18.137Z,100.00
2023-04-16T02:23:47.610Z,100.00
2023-04-16T02:26:14.371Z,100.00
2023-04-16T02:28:41.131Z,100.00
2023-04-16T02:31:10.459Z,100.00
2023-04-16T02:33:42.226Z,100.00
2023-04-16T02:36:10.573Z,100.00
2023-04-16T02:38:37.608Z,100.00
2023-04-16T02:41:04.329Z,100.00
2023-04-16T02:43:31.420Z,100.00
2023-04-16T02:45:59.440Z,100.00
2023-04-16T02:48:26.321Z,100.00
2023-04-16T02:50:52.946Z,100.00
2023-04-16T02:53:19.565Z,100.00
2023-04-16T02:55:53.842Z,100.00
2023-04-16T02:58:22.463Z,100.00
2023-04-16T03:00:49.130Z,100.00
2023-04-16T03:03:15.947Z,100.00
2023-04-16T03:05:42.646Z,100.00
2023-04-16T03:08:10.772Z,100.00
2023-04-16T03:10:37.457Z,100.00
2023-04-16T03:13:04.356Z,100.00
2023-04-16T03:15:31.421Z,100.00
2023-04-16T03:17:58.193Z,100.00
2023-04-16T03:20:24.917Z,100.00
2023-04-16T03:22:52.772Z,100.00
2023-04-16T03:25:19.466Z,100.00
2023-04-16T03:27:46.086Z,100.00
2023-04-16T03:30:14.150Z,100.00
2023-04-16T03:32:40.982Z,100.00
2023-04-16T03:35:08.737Z,100.00
2023-04-16T03:37:35.903Z,100.00
2023-04-16T03:40:02.605Z,100.00
2023-04-16T03:42:30.741Z,100.00
2023-04-16T03:44:57.930Z,100.00
2023-04-16T03:47:24.647Z,100.00
2023-04-16T03:49:54.445Z,100.00
2023-04-16T03:52:21.327Z,100.00
2023-04-16T03:54:47.967Z,100.00
2023-04-16T03:57:26.743Z,100.00
2023-04-16T03:59:57.366Z,100.00
2023-04-16T04:02:26.397Z,100.00
2023-04-16T04:04:53.271Z,100.00
2023-04-16T04:07:20.223Z,100.00
2023-04-16T04:09:47.050Z,100.00
2023-04-16T04:12:15.056Z,100.00
2023-04-16T04:14:43.151Z,100.00
2023-04-16T04:17:09.780Z,100.00
2023-04-16T04:19:37.803Z,100.00
2023-04-16T04:22:08.492Z,100.00
2023-04-16T04:24:37.143Z,100.00
2023-04-16T04:27:03.861Z,100.00
2023-04-16T04:29:31.780Z,100.00
2023-04-16T04:31:59.100Z,100.00
2023-04-16T04:34:25.894Z,100.00
2023-04-16T04:36:54.395Z,100.00
2023-04-16T04:39:21.707Z,100.00
2023-04-16T04:41:49.402Z,100.00
2023-04-16T04:44:18.151Z,100.00
2023-04-16T04:46:44.733Z,100.00
2023-04-16T04:49:12.028Z,100.00
2023-04-16T04:51:38.805Z,100.00
2023-04-16T04:54:05.450Z,100.00
2023-04-16T04:56:32.040Z,100.00
2023-04-16T04:58:58.613Z,100.00
2023-04-16T05:01:25.633Z,100.00
2023-04-16T05:03:52.254Z,100.00
2023-04-16T05:06:18.902Z,100.00
2023-04-16T05:08:45.603Z,100.00
2023-04-16T05:11:12.202Z,100.00
2023-04-16T05:13:38.846Z,100.00
2023-04-16T05:16:06.084Z,100.00
2023-04-16T05:18:33.361Z,100.00
2023-04-16T05:20:59.937Z,100.00
2023-04-16T05:23:26.536Z,100.00
2023-04-16T05:25:53.100Z,100.00
2023-04-16T05:28:19.737Z,100.00
2023-04-16T05:30:46.354Z,100.00
2023-04-16T05:33:12.968Z,100.00
2023-04-16T05:35:39.630Z,100.00
2023-04-16T05:38:06.243Z,100.00
2023-04-16T05:40:32.905Z,100.00
2023-04-16T05:42:59.535Z,100.00
2023-04-16T05:45:27.955Z,100.00
2023-04-16T05:47:54.880Z,100.00
2023-04-16T05:50:21.582Z,100.00
2023-04-16T05:52:48.171Z,100.00
2023-04-16T05:55:14.780Z,100.00
2023-04-16T05:57:41.398Z,100.00
2023-04-16T06:00:08.523Z,100.00
2023-04-16T06:02:41.409Z,100.00
2023-04-16T06:05:08.526Z,100.00
2023-04-16T06:07:35.147Z,100.00
2023-04-16T06:10:01.832Z,100.00
2023-04-16T06:12:28.441Z,100.00
2023-04-16T06:14:55.031Z,100.00
2023-04-16T06:17:21.622Z,100.00
2023-04-16T06:19:48.273Z,100.00
2023-04-16T06:22:14.902Z,100.00
2023-04-16T06:24:41.857Z,100.00
2023-04-16T06:27:08.426Z,100.00
2023-04-16T06:29:40.972Z,100.00
2023-04-16T06:32:08.236Z,100.00
2023-04-16T06:34:34.892Z,100.00
2023-04-16T06:37:01.637Z,100.00
2023-04-16T06:39:28.225Z,100.00
2023-04-16T06:41:54.965Z,100.00
2023-04-16T06:44:21.773Z,100.00
2023-04-16T06:46:48.486Z,100.00
2023-04-16T06:49:15.700Z,100.00
2023-04-16T06:51:42.585Z,100.00
2023-04-16T06:54:09.219Z,100.00
2023-04-16T06:56:37.391Z,100.00
2023-04-16T06:59:04.379Z,100.00
2023-04-16T07:01:34.044Z,100.00
2023-04-16T07:04:01.039Z,100.00
2023-04-16T07:06:27.754Z,100.00
2023-04-16T07:08:54.366Z,100.00
2023-04-16T07:11:21.313Z,100.00
2023-04-16T07:13:48.005Z,100.00
2023-04-16T07:16:14.702Z,100.00
2023-04-16T07:18:42.049Z,100.00
2023-04-16T07:21:08.642Z,100.00
2023-04-16T07:23:35.484Z,100.00
2023-04-16T07:26:02.664Z,100.00
2023-04-16T07:28:29.287Z,100.00
2023-04-16T07:30:56.109Z,100.00
2023-04-16T07:33:24.876Z,100.00
2023-04-16T07:35:51.585Z,100.00
2023-04-16T07:38:18.179Z,100.00
2023-04-16T07:40:46.230Z,100.00
2023-04-16T07:43:13.896Z,100.00
2023-04-16T07:45:41.424Z,100.00
2023-04-16T07:48:08.161Z,100.00
2023-04-16T07:50:34.836Z,100.00
2023-04-16T07:53:01.508Z,100.00
2023-04-16T07:55:28.128Z,100.00
2023-04-16T07:57:54.952Z,97.58
2023-04-16T08:00:21.543Z,94.95
2023-04-16T08:02:48.611Z,92.42
2023-04-16T08:05:15.516Z,90.19
2023-04-16T08:07:42.303Z,90.43
2023-04-16T08:10:09.062Z,89.62
2023-04-16T08:12:35.987Z,88.10
2023-04-16T08:15:02.576Z,86.52
2023-04-16T08:17:30.092Z,85.70
2023-04-16T08:19:56.744Z,85.89
2023-04-16T08:22:23.324Z,86.42
2023-04-16T08:24:49.890Z,83.95
2023-04-16T08:27:19.856Z,83.20
2023-04-16T08:29:47.907Z,85.16
2023-04-16T08:32:14.537Z,84.47
2023-04-16T08:34:41.978Z,85.35
2023-04-16T08:37:08.830Z,85.88
2023-04-16T08:39:35.675Z,86.73
2023-04-16T08:42:06.131Z,86.81
2023-04-16T08:44:34.971Z,86.60
2023-04-16T08:47:02.318Z,87.08
2023-04-16T08:49:29.504Z,85.41
2023-04-16T08:51:56.815Z,84.16
2023-04-16T08:54:37.775Z,84.58
2023-04-16T08:57:06.808Z,82.37
2023-04-16T08:59:33.518Z,82.23
2023-04-16T09:02:00.862Z,83.21
2023-04-16T09:04:31.181Z,81.97
2023-04-16T09:06:58.964Z,78.76
2023-04-16T09:09:26.853Z,78.53
2023-04-16T09:11:55.818Z,76.70
2023-04-16T09:14:22.502Z,79.51
2023-04-16T09:16:49.513Z,76.42
2023-04-16T09:19:16.253Z,77.13
2023-04-16T09:21:46.929Z,78.16
2023-04-16T09:24:14.023Z,80.26
2023-04-16T09:26:43.514Z,81.67
2023-04-16T09:29:10.424Z,81.88
2023-04-16T09:31:37.243Z,80.40
2023-04-16T09:34:08.487Z,81.25
2023-04-16T09:36:36.186Z,80.12
2023-04-16T09:39:03.805Z,78.11
2023-04-16T09:41:36.049Z,78.55
2023-04-16T09:44:04.601Z,78.23
2023-04-16T09:46:32.100Z,80.21
2023-04-16T09:48:58.829Z,80.00
2023-04-16T09:51:28.365Z,78.34
2023-04-16T09:53:57.028Z,78.44
2023-04-16T09:56:25.966Z,79.65
2023-04-16T09:58:58.100Z,76.59
2023-04-16T10:01:25.485Z,74.82
2023-04-16T10:03:54.761Z,71.68
2023-04-16T10:06:23.331Z,70.01
2023-04-16T10:08:51.417Z,67.31
2023-04-16T10:11:18.945Z,65.34
2023-04-16T10:13:46.909Z,65.37
2023-04-16T10:16:13.792Z,64.90
2023-04-16T10:18:42.282Z,66.00
2023-04-16T10:21:11.926Z,68.90
2023-04-16T10:23:39.959Z,68.18
2023-04-16T10:26:07.096Z,67.42
2023-04-16T10:28:35.460Z,67.33
2023-04-16T10:31:04.626Z,69.34
2023-04-16T10:33:40.772Z,67.48
2023-04-16T10:36:11.333Z,65.62
2023-04-16T10:38:40.308Z,65.55
2023-04-16T10:41:07.874Z,67.86
2023-04-16T10:43:41.080Z,69.11
2023-04-16T10:46:31.174Z,67.65
2023-04-16T10:49:03.819Z,67.86
2023-04-16T10:51:32.748Z,68.63
2023-04-16T10:54:08.586Z,67.84
2023-04-16T10:56:36.485Z,66.92
2023-04-16T10:59:07.201Z,67.60
2023-04-16T11:01:36.171Z,68.59
2023-04-16T11:04:21.452Z,70.89
2023-04-16T11:07:07.425Z,69.40
2023-04-16T11:09:59.845Z,68.27
2023-04-16T11:12:37.428Z,67.41
2023-04-16T11:15:10.131Z,66.34
2023-04-16T11:17:39.252Z,65.76
2023-04-16T11:20:20.155Z,64.38
2023-04-16T11:22:48.560Z,63.78
2023-04-16T11:25:25.152Z,63.46
2023-04-16T11:27:52.766Z,63.53
2023-04-16T11:30:28.658Z,64.32
2023-04-16T11:32:55.800Z,64.09
2023-04-16T11:35:22.547Z,62.83
2023-04-16T11:37:49.432Z,65.15
2023-04-16T11:40:16.174Z,65.91
2023-04-16T11:42:44.201Z,63.73
2023-04-16T11:45:11.967Z,62.33
2023-04-16T11:47:52.255Z,62.03
2023-04-16T11:50:21.396Z,61.45
2023-04-16T11:52:49.102Z,64.05
2023-04-16T11:55:16.209Z,63.59
2023-04-16T11:57:42.975Z,64.52
2023-04-16T12:00:13.855Z,64.11
2023-04-16T12:02:54.321Z,61.72
2023-04-16T12:05:31.876Z,61.30
2023-04-16T12:07:59.243Z,62.65
2023-04-16T12:10:26.319Z,62.00
2023-04-16T12:12:53.025Z,59.63
2023-04-16T12:15:19.674Z,60.77
2023-04-16T12:17:46.327Z,60.31
2023-04-16T12:20:15.366Z,61.51
2023-04-16T12:22:47.412Z,62.30
2023-04-16T12:25:16.019Z,62.12
2023-04-16T12:27:54.077Z,63.50
2023-04-16T12:30:25.019Z,63.95
2023-04-16T12:32:54.721Z,65.13
2023-04-16T12:35:31.069Z,65.24
2023-04-16T12:37:57.799Z,63.76
2023-04-16T12:40:24.487Z,64.49
2023-04-16T12:42:51.323Z,67.91
2023-04-16T12:45:17.939Z,68.03
2023-04-16T12:47:44.654Z,68.59
2023-04-16T12:50:11.303Z,68.45
2023-04-16T12:52:38.035Z,68.10
2023-04-16T12:55:04.999Z,68.18
2023-04-16T12:57:31.676Z,68.57
2023-04-16T12:59:58.755Z,68.11
2023-04-16T13:02:26.034Z,67.34
2023-04-16T13:04:53.026Z,68.25
2023-04-16T13:07:20.428Z,70.24
2023-04-16T13:09:47.205Z,71.91
2023-04-16T13:12:13.927Z,71.69
2023-04-16T13:14:40.578Z,73.36
2023-04-16T13:17:07.392Z,71.65
2023-04-16T13:19:33.980Z,70.63
2023-04-16T13:22:00.570Z,69.06
2023-04-16T13:24:27.197Z,69.72
2023-04-16T13:26:53.882Z,70.07
2023-04-16T13:29:20.636Z,68.82
2023-04-16T13:31:47.391Z,70.37
2023-04-16T13:34:14.050Z,71.13
2023-04-16T13:36:40.851Z,69.75
2023-04-16T13:39:11.505Z,70.41
2023-04-16T13:41:39.048Z,70.54
2023-04-16T13:44:06.419Z,70.31
2023-04-16T13:46:33.269Z,69.23
2023-04-16T13:48:59.932Z,70.32
2023-04-16T13:51:27.737Z,70.64
2023-04-16T13:53:55.678Z,69.99
2023-04-16T13:56:22.326Z,68.28
2023-04-16T13:58:49.281Z,68.42
2023-04-16T14:01:17.376Z,69.87
2023-04-16T14:03:44.165Z,68.82
2023-04-16T14:06:10.969Z,69.75
2023-04-16T14:08:38.306Z,71.57
2023-04-16T14:11:06.438Z,72.98
2023-04-16T14:13:33.088Z,74.23
2023-04-16T14:15:59.816Z,73.57
2023-04-16T14:18:26.808Z,74.54
2023-04-16T14:20:53.444Z,77.18
2023-04-16T14:23:20.024Z,76.20
2023-04-16T14:25:46.643Z,76.70
2023-04-16T14:28:15.536Z,77.03
2023-04-16T14:30:42.366Z,78.64
2023-04-16T14:33:09.215Z,79.50
2023-04-16T14:35:36.094Z,80.65
2023-04-16T14:38:02.900Z,79.62
2023-04-16T14:40:29.981Z,79.31
2023-04-16T14:42:56.593Z,81.28
2023-04-16T14:45:26.281Z,80.56
2023-04-16T14:47:53.830Z,81.08
2023-04-16T14:50:20.607Z,80.79
2023-04-16T14:52:47.308Z,80.13
2023-04-16T14:55:14.425Z,80.68
2023-04-16T14:57:41.593Z,80.00
2023-04-16T15:00:10.441Z,81.94
2023-04-16T15:02:37.560Z,80.39
2023-04-16T15:05:04.572Z,81.99
2023-04-16T15:07:31.607Z,82.52
2023-04-16T15:09:58.252Z,84.87
2023-04-16T15:12:24.974Z,86.35
2023-04-16T15:14:51.540Z,89.16
2023-04-16T15:17:18.354Z,89.76
2023-04-16T15:19:45.002Z,92.25
2023-04-16T15:22:11.674Z,91.08
2023-04-16T15:24:38.237Z,92.87
2023-04-16T15:27:07.013Z,95.61
2023-04-16T15:29:34.260Z,96.82
2023-04-16T15:32:00.940Z,94.90
2023-04-16T15:34:28.073Z,95.09
2023-04-16T15:36:54.662Z,95.13
2023-04-16T15:39:21.668Z,97.33
2023-04-16T15:42:00.492Z,99.04
2023-04-16T15:44:28.368Z,97.65
2023-04-16T15:46:55.019Z,98.16
2023-04-16T15:49:21.723Z,98.97
2023-04-16T15:51:48.917Z,97.48
2023-04-16T15:54:15.617Z,99.44
2023-04-16T15:56:42.257Z,100.00
2023-04-16T15:59:09.570Z,100.00
2023-04-16T16:01:36.522Z,100.00
2023-04-16T16:04:07.364Z,100.00
2023-04-16T16:06:34.521Z,100.00
2023-04-16T16:09:01.722Z,100.00
2023-04-16T16:11:29.564Z,100.00
2023-04-16T16:13:56.222Z,100.00
2023-04-16T16:16:22.951Z,100.00
2023-04-16T16:18:49.979Z,100.00
2023-04-16T16:21:16.655Z,100.00
2023-04-16T16:23:43.359Z,100.00
2023-04-16T16:26:10.016Z,100.00
2023-04-16T16:28:37.893Z,100.00
2023-04-16T16:31:05.934Z,100.00
2023-04-16T16:33:33.128Z,100.00
2023-04-16T16:35:59.790Z,100.00
2023-04-16T16:38:27.050Z,100.00
2023-04-16T16:40:53.680Z,100.00
2023-04-16T16:43:20.698Z,100.00
2023-04-16T16:45:47.692Z,100.00
2023-04-16T16:48:14.286Z,100.00
2023-04-16T16:50:41.058Z,100.00
2023-04-16T16:53:07.713Z,100.00
2023-04-16T16:55:35.527Z,100.00
2023-04-16T16:58:02.406Z,100.00
2023-04-16T17:00:29.063Z,100.00
2023-04-16T17:02:55.880Z,100.00
2023-04-16T17:05:23.380Z,100.00
2023-04-16T17:07:50.100Z,100.00
2023-04-16T17:13:34.478Z,100.00
2023-04-16T17:16:02.443Z,100.00
2023-04-16T17:18:32.410Z,100.00
2023-04-16T17:20:59.299Z,100.00
2023-04-16T17:23:26.452Z,100.00
2023-04-16T17:25:53.216Z,100.00
2023-04-16T17:28:21.077Z,100.00
2023-04-16T17:30:51.420Z,100.00
2023-04-16T17:33:19.401Z,100.00
2023-04-16T17:35:46.141Z,100.00
2023-04-16T17:38:12.742Z,100.00
2023-04-16T17:40:39.365Z,100.00
2023-04-16T17:43:06.154Z,100.00
2023-04-16T17:45:34.985Z,100.00
2023-04-16T17:48:01.975Z,100.00
2023-04-16T17:50:28.644Z,100.00
2023-04-16T17:52:55.421Z,100.00
2023-04-16T17:55:22.084Z,100.00
2023-04-16T17:57:49.193Z,100.00
2023-04-16T18:00:16.229Z,100.00
2023-04-16T18:02:43.025Z,100.00
2023-04-16T18:05:09.804Z,100.00
2023-04-16T18:07:37.531Z,100.00
2023-04-16T18:10:04.508Z,100.00
2023-04-16T18:12:32.756Z,100.00
2023-04-16T18:14:59.363Z,100.00
2023-04-16T18:17:25.987Z,100.00
2023-04-16T18:19:52.640Z,100.00
2023-04-16T18:22:19.266Z,100.00
2023-04-16T18:24:45.885Z,100.00
2023-04-16T18:27:12.692Z,100.00
2023-04-16T18:29:40.548Z,100.00
2023-04-16T18:32:09.903Z,100.00
2023-04-16T18:34:38.502Z,100.00
2023-04-16T18:37:05.333Z,100.00
2023-04-16T18:39:35.821Z,100.00
2023-04-16T18:42:03.742Z,100.00
2023-04-16T18:44:30.514Z,100.00
2023-04-16T18:46:57.190Z,100.00
2023-04-16T18:49:24.115Z,100.00
2023-04-16T18:51:51.054Z,100.00
2023-04-16T18:54:17.641Z,100.00
2023-04-16T18:56:44.994Z,100.00
2023-04-16T18:59:11.970Z,100.00
2023-04-16T19:01:38.827Z,100.00
2023-04-16T19:04:05.695Z,100.00
2023-04-16T19:06:32.610Z,100.00
2023-04-16T19:08:59.334Z,100.00
2023-04-16T19:11:26.029Z,100.00
2023-04-16T19:13:52.695Z,100.00
2023-04-16T19:16:19.294Z,100.00
2023-04-16T19:18:45.957Z,100.00
2023-04-16T19:21:12.610Z,100.00
2023-04-16T19:23:39.294Z,100.00
2023-04-16T19:26:05.975Z,100.00
2023-04-16T19:28:32.612Z,100.00
2023-04-16T19:30:59.195Z,100.00
2023-04-16T19:33:25.764Z,100.00
2023-04-16T19:35:52.413Z,100.00
2023-04-16T19:38:19.058Z,100.00
2023-04-16T19:40:46.655Z,100.00
2023-04-16T19:43:13.877Z,100.00
2023-04-16T19:45:47.932Z,100.00
2023-04-16T19:48:14.831Z,100.00
2023-04-16T19:50:42.168Z,100.00
2023-04-16T19:53:09.316Z,100.00
2023-04-16T19:55:36.547Z,100.00
2023-04-16T19:58:06.363Z,100.00
2023-04-16T20:00:34.194Z,100.00
2023-04-16T20:03:00.920Z,100.00
2023-04-16T20:05:27.933Z,100.00
2023-04-16T20:07:54.818Z,100.00
2023-04-16T20:10:21.955Z,100.00
2023-04-16T20:12:49.111Z,100.00
2023-04-16T20:15:16.055Z,100.00
2023-04-16T20:17:42.681Z,100.00
2023-04-16T20:20:10.315Z,100.00
2023-04-16T20:22:40.255Z,100.00
2023-04-16T20:25:07.712Z,100.00
2023-04-16T20:27:34.714Z,100.00
2023-04-16T20:30:01.761Z,100.00
2023-04-16T20:32:28.413Z,100.00
2023-04-16T20:34:57.948Z,100.00
2023-04-16T20:37:24.605Z,100.00
2023-04-16T20:39:54.178Z,100.00
2023-04-16T20:42:22.574Z,100.00
2023-04-16T20:44:56.394Z,100.00
2023-04-16T20:47:23.725Z,100.00
2023-04-16T20:49:50.611Z,100.00
2023-04-16T20:52:17.481Z,100.00
2023-04-16T20:54:44.359Z,100.00
2023-04-16T20:57:11.171Z,100.00
2023-04-16T20:59:37.997Z,100.00
2023-04-16T21:02:04.841Z,100.00
2023-04-16T21:04:31.819Z,100.00
2023-04-16T21:06:58.761Z,100.00
2023-04-16T21:09:25.472Z,100.00
2023-04-16T21:11:52.160Z,100.00
2023-04-16T21:14:18.939Z,100.00
2023-04-16T21:16:47.282Z,100.00
2023-04-16T21:19:14.351Z,100.00
2023-04-16T21:21:41.820Z,100.00
2023-04-16T21:24:08.716Z,100.00
2023-04-16T21:26:36.605Z,100.00
2023-04-16T21:29:04.122Z,100.00
2023-04-16T21:31:30.803Z,100.00
2023-04-16T21:33:57.931Z,100.00
2023-04-16T21:36:27.436Z,100.00
2023-04-16T21:38:54.139Z,100.00
2023-04-16T21:41:21.131Z,100.00
2023-04-16T21:43:48.969Z,100.00
2023-04-16T21:46:15.632Z,100.00
2023-04-16T21:48:42.214Z,100.00
2023-04-16T21:51:10.118Z,100.00
2023-04-16T21:53:38.611Z,100.00
2023-04-16T21:56:06.123Z,100.00
2023-04-16T21:58:32.725Z,100.00
2023-04-16T22:00:59.348Z,100.00
2023-04-16T22:03:26.607Z,100.00
2023-04-16T22:06:01.489Z,100.00
2023-04-16T22:08:32.029Z,100.00
2023-04-16T22:11:01.280Z,100.00
2023-04-16T22:13:36.402Z,100.00
2023-04-16T22:16:03.663Z,100.00
2023-04-16T22:18:33.729Z,100.00
2023-04-16T22:21:01.026Z,100.00
2023-04-16T22:23:27.640Z,100.00
2023-04-16T22:25:55.995Z,100.00
2023-04-16T22:28:23.224Z,100.00
2023-04-16T22:30:49.867Z,100.00
2023-04-16T22:33:16.600Z,100.00
2023-04-16T22:35:43.235Z,100.00
2023-04-16T22:38:10.437Z,100.00
2023-04-16T22:40:37.127Z,100.00
2023-04-16T22:43:03.922Z,100.00
2023-04-16T22:45:30.871Z,100.00
2023-04-16T22:47:59.372Z,100.00
2023-04-16T22:50:26.352Z,100.00
2023-04-16T22:52:53.302Z,100.00
2023-04-16T22:55:20.363Z,100.00
2023-04-16T22:57:47.682Z,100.00
2023-04-16T23:00:16.273Z,100.00
2023-04-16T23:02:43.432Z,100.00
2023-04-16T23:05:10.550Z,100.00
2023-04-16T23:07:37.378Z,100.00
2023-04-16T23:10:04.339Z,100.00
2023-04-16T23:12:30.988Z,100.00
2023-04-16T23:14:58.346Z,100.00
2023-04-16T23:17:25.057Z,100.00
2023-04-16T23:19:51.721Z,100.00
2023-04-16T23:22:18.414Z,100.00
2023-04-16T23:24:45.040Z,100.00
2023-04-16T23:27:11.625Z,100.00
2023-04-16T23:29:38.203Z,100.00
2023-04-16T23:32:05.028Z,100.00
2023-04-16T23:34:31.787Z,100.00
2023-04-16T23:36:58.604Z,100.00
2023-04-16T23:39:25.466Z,100.00
2023-04-16T23:41:52.394Z,100.00
2023-04-16T23:44:19.707Z,100.00
2023-04-16T23:46:46.760Z,100.00
2023-04-16T23:49:13.606Z,100.00
2023-04-16T23:51:40.215Z,100.00
2023-04-16T23:54:06.812Z,100.00
2023-04-16T23:56:33.395Z,100.00
2023-04-16T23:58:59.980Z,100.00
